TAFOR
Diposting tanggal: 30 Agustus 2018

Pukul : 00 - 12 UTC

Isi :

TAF WAGI 252300Z 2600/2612 00000KT 1000 BR BKN007 BECMG 2600/2601 10006KT 8000 NSW BKN012 TEMPO 2605/2609 18007KT 2000 TSRA FEW012CB BKN012=